sensor_id;sensor_type;location;lat;lon;timestamp;P1;durP1;ratioP1;P2;durP2;ratioP2
23614;SDS011;11985;49.404;7.734;2023-02-01T00:02:16;19.15;;;9.27;;
23614;SDS011;11985;49.404;7.734;2023-02-01T00:07:18;23.65;;;9.98;;
23614;SDS011;11985;49.404;7.734;2023-02-01T00:12:21;17.85;;;9.32;;
23614;SDS011;11985;49.404;7.734;2023-02-01T00:17:22;16.95;;;9.02;;
23614;SDS011;11985;49.404;7.734;2023-02-01T00:22:24;17.15;;;8.75;;
23614;SDS011;11985;49.404;7.734;2023-02-01T00:27:27;22.38;;;8.55;;
23614;SDS011;11985;49.404;7.734;2023-02-01T00:32:28;20.27;;;9.20;;
23614;SDS011;11985;49.404;7.734;2023-02-01T00:37:31;16.33;;;8.05;;
23614;SDS011;11985;49.404;7.734;2023-02-01T00:42:34;17.17;;;8.02;;
23614;SDS011;11985;49.404;7.734;2023-02-01T00:47:36;14.75;;;7.45;;
23614;SDS011;11985;49.404;7.734;2023-02-01T00:52:37;16.92;;;9.52;;
23614;SDS011;11985;49.404;7.734;2023-02-01T00:57:40;17.52;;;7.82;;
23614;SDS011;11985;49.404;7.734;2023-02-01T01:02:42;19.73;;;10.15;;
23614;SDS011;11985;49.404;7.734;2023-02-01T01:07:43;18.10;;;9.25;;
23614;SDS011;11985;49.404;7.734;2023-02-01T01:12:46;19.90;;;9.15;;
23614;SDS011;11985;49.404;7.734;2023-02-01T01:17:48;14.02;;;8.68;;
23614;SDS011;11985;49.404;7.734;2023-02-01T01:22:49;19.50;;;9.65;;
23614;SDS011;11985;49.404;7.734;2023-02-01T01:27:52;21.95;;;9.73;;
23614;SDS011;11985;49.404;7.734;2023-02-01T01:32:54;16.30;;;9.02;;
23614;SDS011;11985;49.404;7.734;2023-02-01T01:37:55;17.05;;;9.88;;
23614;SDS011;11985;49.404;7.734;2023-02-01T01:42:58;12.90;;;7.20;;
23614;SDS011;11985;49.404;7.734;2023-02-01T01:48:01;19.10;;;9.93;;
23614;SDS011;11985;49.404;7.734;2023-02-01T01:53:07;24.33;;;10.40;;
23614;SDS011;11985;49.404;7.734;2023-02-01T01:58:14;24.58;;;10.05;;
23614;SDS011;11985;49.404;7.734;2023-02-01T02:03:19;20.52;;;10.10;;
23614;SDS011;11985;49.404;7.734;2023-02-01T02:08:24;21.15;;;9.75;;
23614;SDS011;11985;49.404;7.734;2023-02-01T02:13:29;17.00;;;8.68;;
23614;SDS011;11985;49.404;7.734;2023-02-01T02:18:34;18.48;;;8.43;;
23614;SDS011;11985;49.404;7.734;2023-02-01T02:29:34;20.77;;;8.68;;
23614;SDS011;11985;49.404;7.734;2023-02-01T02:34:57;21.00;;;9.45;;
23614;SDS011;11985;49.404;7.734;2023-02-01T02:40:08;23.20;;;10.20;;
23614;SDS011;11985;49.404;7.734;2023-02-01T02:45:17;20.17;;;10.07;;
23614;SDS011;11985;49.404;7.734;2023-02-01T02:50:44;18.65;;;9.35;;
23614;SDS011;11985;49.404;7.734;2023-02-01T02:56:08;27.30;;;10.50;;
23614;SDS011;11985;49.404;7.734;2023-02-01T03:01:30;19.70;;;9.70;;
23614;SDS011;11985;49.404;7.734;2023-02-01T03:06:52;16.23;;;9.45;;
23614;SDS011;11985;49.404;7.734;2023-02-01T03:11:56;17.92;;;9.85;;
23614;SDS011;11985;49.404;7.734;2023-02-01T03:17:26;25.60;;;10.45;;
23614;SDS011;11985;49.404;7.734;2023-02-01T03:22:33;35.30;;;11.57;;
23614;SDS011;11985;49.404;7.734;2023-02-01T03:27:40;23.30;;;9.73;;
23614;SDS011;11985;49.404;7.734;2023-02-01T03:32:46;25.75;;;10.07;;
23614;SDS011;11985;49.404;7.734;2023-02-01T03:38:04;13.52;;;6.82;;
23614;SDS011;11985;49.404;7.734;2023-02-01T03:43:14;15.02;;;7.30;;
23614;SDS011;11985;49.404;7.734;2023-02-01T03:48:20;17.45;;;6.60;;
23614;SDS011;11985;49.404;7.734;2023-02-01T03:53:25;18.83;;;8.02;;
23614;SDS011;11985;49.404;7.734;2023-02-01T03:58:28;21.60;;;8.98;;
23614;SDS011;11985;49.404;7.734;2023-02-01T04:03:30;23.08;;;8.52;;
23614;SDS011;11985;49.404;7.734;2023-02-01T04:08:33;15.93;;;8.25;;
23614;SDS011;11985;49.404;7.734;2023-02-01T04:13:35;20.13;;;8.63;;
23614;SDS011;11985;49.404;7.734;2023-02-01T04:18:36;16.55;;;8.32;;
23614;SDS011;11985;49.404;7.734;2023-02-01T04:23:39;22.48;;;7.25;;
23614;SDS011;11985;49.404;7.734;2023-02-01T04:28:41;19.95;;;7.28;;
23614;SDS011;11985;49.404;7.734;2023-02-01T04:33:42;13.30;;;6.45;;
23614;SDS011;11985;49.404;7.734;2023-02-01T04:38:45;12.35;;;6.70;;
23614;SDS011;11985;49.404;7.734;2023-02-01T04:43:47;12.30;;;7.35;;
23614;SDS011;11985;49.404;7.734;2023-02-01T04:48:50;14.32;;;8.05;;
23614;SDS011;11985;49.404;7.734;2023-02-01T04:53:52;14.20;;;6.68;;
23614;SDS011;11985;49.404;7.734;2023-02-01T04:58:55;9.63;;;4.37;;
23614;SDS011;11985;49.404;7.734;2023-02-01T05:03:57;11.80;;;4.18;;
23614;SDS011;11985;49.404;7.734;2023-02-01T05:09:00;11.57;;;5.82;;
23614;SDS011;11985;49.404;7.734;2023-02-01T05:14:02;17.95;;;7.28;;
23614;SDS011;11985;49.404;7.734;2023-02-01T05:19:03;17.90;;;8.88;;
23614;SDS011;11985;49.404;7.734;2023-02-01T05:24:07;29.35;;;9.68;;
23614;SDS011;11985;49.404;7.734;2023-02-01T05:29:13;22.95;;;9.85;;
23614;SDS011;11985;49.404;7.734;2023-02-01T05:34:15;26.27;;;10.00;;
23614;SDS011;11985;49.404;7.734;2023-02-01T05:39:18;23.08;;;10.20;;
23614;SDS011;11985;49.404;7.734;2023-02-01T05:44:20;21.50;;;9.40;;
23614;SDS011;11985;49.404;7.734;2023-02-01T05:49:21;19.55;;;8.57;;
23614;SDS011;11985;49.404;7.734;2023-02-01T05:54:24;20.88;;;8.15;;
23614;SDS011;11985;49.404;7.734;2023-02-01T05:59:26;17.45;;;8.18;;
23614;SDS011;11985;49.404;7.734;2023-02-01T06:04:27;18.48;;;7.45;;
23614;SDS011;11985;49.404;7.734;2023-02-01T06:09:30;16.27;;;7.38;;
23614;SDS011;11985;49.404;7.734;2023-02-01T06:14:32;17.98;;;5.90;;
23614;SDS011;11985;49.404;7.734;2023-02-01T06:19:34;17.83;;;6.63;;
23614;SDS011;11985;49.404;7.734;2023-02-01T06:24:37;20.65;;;5.43;;
23614;SDS011;11985;49.404;7.734;2023-02-01T06:29:39;15.93;;;5.80;;
23614;SDS011;11985;49.404;7.734;2023-02-01T06:34:41;15.18;;;5.82;;
23614;SDS011;11985;49.404;7.734;2023-02-01T06:39:44;22.58;;;6.57;;
23614;SDS011;11985;49.404;7.734;2023-02-01T06:44:46;26.05;;;7.40;;
23614;SDS011;11985;49.404;7.734;2023-02-01T06:49:48;24.88;;;7.60;;
23614;SDS011;11985;49.404;7.734;2023-02-01T06:54:51;30.73;;;8.77;;
23614;SDS011;11985;49.404;7.734;2023-02-01T06:59:52;26.15;;;10.32;;
23614;SDS011;11985;49.404;7.734;2023-02-01T07:04:54;23.00;;;7.05;;
23614;SDS011;11985;49.404;7.734;2023-02-01T07:09:57;28.25;;;9.40;;
23614;SDS011;11985;49.404;7.734;2023-02-01T07:14:59;27.27;;;6.43;;
23614;SDS011;11985;49.404;7.734;2023-02-01T07:20:01;18.27;;;6.95;;
23614;SDS011;11985;49.404;7.734;2023-02-01T07:25:06;29.75;;;9.32;;
23614;SDS011;11985;49.404;7.734;2023-02-01T07:30:08;24.70;;;9.43;;
23614;SDS011;11985;49.404;7.734;2023-02-01T07:35:11;20.60;;;9.18;;
23614;SDS011;11985;49.404;7.734;2023-02-01T07:40:15;32.22;;;8.50;;
23614;SDS011;11985;49.404;7.734;2023-02-01T07:45:18;33.40;;;8.90;;
23614;SDS011;11985;49.404;7.734;2023-02-01T07:50:20;30.50;;;8.23;;
23614;SDS011;11985;49.404;7.734;2023-02-01T07:55:23;27.48;;;9.00;;
23614;SDS011;11985;49.404;7.734;2023-02-01T08:00:25;21.23;;;7.55;;
23614;SDS011;11985;49.404;7.734;2023-02-01T08:05:44;17.83;;;3.85;;
23614;SDS011;11985;49.404;7.734;2023-02-01T08:10:47;17.05;;;6.25;;
23614;SDS011;11985;49.404;7.734;2023-02-01T08:15:49;22.90;;;7.35;;
23614;SDS011;11985;49.404;7.734;2023-02-01T08:20:51;19.98;;;5.93;;
23614;SDS011;11985;49.404;7.734;2023-02-01T08:25:54;23.48;;;6.40;;
23614;SDS011;11985;49.404;7.734;2023-02-01T08:30:55;28.85;;;6.63;;
23614;SDS011;11985;49.404;7.734;2023-02-01T08:36:00;16.00;;;6.35;;
23614;SDS011;11985;49.404;7.734;2023-02-01T08:41:07;24.40;;;5.95;;
23614;SDS011;11985;49.404;7.734;2023-02-01T08:46:11;21.63;;;5.00;;
23614;SDS011;11985;49.404;7.734;2023-02-01T08:51:13;20.25;;;5.53;;
23614;SDS011;11985;49.404;7.734;2023-02-01T08:56:18;23.80;;;5.47;;
23614;SDS011;11985;49.404;7.734;2023-02-01T09:01:20;21.38;;;3.85;;
23614;SDS011;11985;49.404;7.734;2023-02-01T09:06:22;17.73;;;5.13;;
23614;SDS011;11985;49.404;7.734;2023-02-01T09:11:25;29.35;;;6.15;;
23614;SDS011;11985;49.404;7.734;2023-02-01T09:16:26;16.20;;;4.28;;
23614;SDS011;11985;49.404;7.734;2023-02-01T09:21:28;28.10;;;4.60;;
23614;SDS011;11985;49.404;7.734;2023-02-01T09:26:31;24.85;;;4.55;;
23614;SDS011;11985;49.404;7.734;2023-02-01T09:31:32;13.38;;;3.42;;
23614;SDS011;11985;49.404;7.734;2023-02-01T09:36:34;27.58;;;4.32;;
23614;SDS011;11985;49.404;7.734;2023-02-01T09:41:41;33.95;;;5.75;;
23614;SDS011;11985;49.404;7.734;2023-02-01T09:46:48;26.67;;;3.83;;
23614;SDS011;11985;49.404;7.734;2023-02-01T09:51:51;20.85;;;4.40;;
23614;SDS011;11985;49.404;7.734;2023-02-01T09:56:58;16.10;;;3.97;;
23614;SDS011;11985;49.404;7.734;2023-02-01T10:02:10;24.63;;;3.40;;
23614;SDS011;11985;49.404;7.734;2023-02-01T10:07:17;17.63;;;3.85;;
23614;SDS011;11985;49.404;7.734;2023-02-01T10:18:16;20.30;;;4.38;;
23614;SDS011;11985;49.404;7.734;2023-02-01T10:23:31;18.00;;;3.63;;
23614;SDS011;11985;49.404;7.734;2023-02-01T10:28:48;21.92;;;3.92;;
23614;SDS011;11985;49.404;7.734;2023-02-01T10:33:52;24.83;;;3.70;;
23614;SDS011;11985;49.404;7.734;2023-02-01T10:38:57;22.02;;;3.67;;
23614;SDS011;11985;49.404;7.734;2023-02-01T10:44:02;19.70;;;3.42;;
23614;SDS011;11985;49.404;7.734;2023-02-01T10:49:10;23.70;;;3.83;;
23614;SDS011;11985;49.404;7.734;2023-02-01T10:54:18;14.48;;;3.17;;
23614;SDS011;11985;49.404;7.734;2023-02-01T10:59:24;23.20;;;3.13;;
23614;SDS011;11985;49.404;7.734;2023-02-01T11:04:28;22.80;;;3.60;;
23614;SDS011;11985;49.404;7.734;2023-02-01T11:09:35;16.10;;;3.25;;
23614;SDS011;11985;49.404;7.734;2023-02-01T11:14:42;27.05;;;4.80;;
23614;SDS011;11985;49.404;7.734;2023-02-01T11:19:44;17.27;;;3.78;;
23614;SDS011;11985;49.404;7.734;2023-02-01T11:24:46;18.77;;;3.05;;
23614;SDS011;11985;49.404;7.734;2023-02-01T11:29:50;17.80;;;3.13;;
23614;SDS011;11985;49.404;7.734;2023-02-01T11:34:54;19.45;;;3.95;;
23614;SDS011;11985;49.404;7.734;2023-02-01T11:39:59;21.85;;;3.30;;
23614;SDS011;11985;49.404;7.734;2023-02-01T11:45:17;24.88;;;4.03;;
23614;SDS011;11985;49.404;7.734;2023-02-01T11:50:25;28.05;;;7.25;;
23614;SDS011;11985;49.404;7.734;2023-02-01T11:55:39;23.00;;;4.43;;
23614;SDS011;11985;49.404;7.734;2023-02-01T12:00:59;24.63;;;4.78;;
23614;SDS011;11985;49.404;7.734;2023-02-01T12:06:13;14.43;;;4.07;;
23614;SDS011;11985;49.404;7.734;2023-02-01T12:11:30;26.50;;;4.10;;
23614;SDS011;11985;49.404;7.734;2023-02-01T12:16:45;26.42;;;3.97;;
23614;SDS011;11985;49.404;7.734;2023-02-01T12:22:12;17.92;;;4.13;;
23614;SDS011;11985;49.404;7.734;2023-02-01T12:32:53;26.52;;;4.60;;
23614;SDS011;11985;49.404;7.734;2023-02-01T12:38:14;16.17;;;3.15;;
23614;SDS011;11985;49.404;7.734;2023-02-01T12:43:38;15.07;;;2.63;;
23614;SDS011;11985;49.404;7.734;2023-02-01T12:48:49;25.17;;;3.67;;
23614;SDS011;11985;49.404;7.734;2023-02-01T12:53:59;11.00;;;4.43;;
23614;SDS011;11985;49.404;7.734;2023-02-01T12:59:05;17.98;;;3.85;;
23614;SDS011;11985;49.404;7.734;2023-02-01T13:04:17;31.20;;;4.35;;
23614;SDS011;11985;49.404;7.734;2023-02-01T13:09:23;18.42;;;3.40;;
23614;SDS011;11985;49.404;7.734;2023-02-01T13:14:29;24.25;;;4.07;;
23614;SDS011;11985;49.404;7.734;2023-02-01T13:19:42;15.02;;;3.08;;
23614;SDS011;11985;49.404;7.734;2023-02-01T13:24:48;21.70;;;3.53;;
23614;SDS011;11985;49.404;7.734;2023-02-01T13:29:54;19.17;;;3.83;;
23614;SDS011;11985;49.404;7.734;2023-02-01T13:35:16;14.93;;;3.05;;
23614;SDS011;11985;49.404;7.734;2023-02-01T13:40:31;25.88;;;3.50;;
23614;SDS011;11985;49.404;7.734;2023-02-01T13:45:42;15.38;;;3.00;;
23614;SDS011;11985;49.404;7.734;2023-02-01T13:50:50;22.02;;;2.88;;
23614;SDS011;11985;49.404;7.734;2023-02-01T13:55:56;16.13;;;2.60;;
23614;SDS011;11985;49.404;7.734;2023-02-01T14:06:39;14.13;;;2.25;;
23614;SDS011;11985;49.404;7.734;2023-02-01T14:11:48;16.33;;;3.30;;
23614;SDS011;11985;49.404;7.734;2023-02-01T14:22:34;16.98;;;2.22;;
23614;SDS011;11985;49.404;7.734;2023-02-01T14:27:36;15.07;;;3.10;;
23614;SDS011;11985;49.404;7.734;2023-02-01T14:32:39;16.17;;;4.10;;
23614;SDS011;11985;49.404;7.734;2023-02-01T14:37:49;13.25;;;3.30;;
23614;SDS011;11985;49.404;7.734;2023-02-01T14:42:54;12.95;;;2.95;;
23614;SDS011;11985;49.404;7.734;2023-02-01T14:53:33;11.52;;;2.75;;
23614;SDS011;11985;49.404;7.734;2023-02-01T14:58:40;18.20;;;3.38;;
23614;SDS011;11985;49.404;7.734;2023-02-01T15:03:46;17.20;;;3.00;;
23614;SDS011;11985;49.404;7.734;2023-02-01T15:08:53;17.60;;;3.33;;
23614;SDS011;11985;49.404;7.734;2023-02-01T15:13:58;16.38;;;3.50;;
23614;SDS011;11985;49.404;7.734;2023-02-01T15:19:06;15.38;;;3.45;;
23614;SDS011;11985;49.404;7.734;2023-02-01T15:24:11;20.15;;;2.72;;
23614;SDS011;11985;49.404;7.734;2023-02-01T15:34:16;20.00;;;3.08;;
23614;SDS011;11985;49.404;7.734;2023-02-01T15:39:21;14.45;;;3.05;;
23614;SDS011;11985;49.404;7.734;2023-02-01T15:44:31;18.63;;;3.45;;
23614;SDS011;11985;49.404;7.734;2023-02-01T15:49:36;19.90;;;2.80;;
23614;SDS011;11985;49.404;7.734;2023-02-01T15:54:42;13.75;;;3.00;;
23614;SDS011;11985;49.404;7.734;2023-02-01T15:59:49;21.95;;;3.72;;
23614;SDS011;11985;49.404;7.734;2023-02-01T16:04:55;20.35;;;3.03;;
23614;SDS011;11985;49.404;7.734;2023-02-01T16:09:59;16.42;;;2.85;;
23614;SDS011;11985;49.404;7.734;2023-02-01T16:15:06;22.52;;;3.88;;
23614;SDS011;11985;49.404;7.734;2023-02-01T16:20:09;16.20;;;2.90;;
23614;SDS011;11985;49.404;7.734;2023-02-01T16:25:12;15.27;;;3.05;;
23614;SDS011;11985;49.404;7.734;2023-02-01T16:30:14;11.98;;;2.80;;
23614;SDS011;11985;49.404;7.734;2023-02-01T16:35:23;18.75;;;3.63;;
23614;SDS011;11985;49.404;7.734;2023-02-01T16:40:27;16.65;;;2.90;;
23614;SDS011;11985;49.404;7.734;2023-02-01T16:45:29;22.42;;;3.22;;
23614;SDS011;11985;49.404;7.734;2023-02-01T16:50:31;13.20;;;2.47;;
23614;SDS011;11985;49.404;7.734;2023-02-01T16:55:35;18.10;;;2.67;;
23614;SDS011;11985;49.404;7.734;2023-02-01T17:00:37;14.95;;;4.38;;
23614;SDS011;11985;49.404;7.734;2023-02-01T17:05:38;15.70;;;2.45;;
23614;SDS011;11985;49.404;7.734;2023-02-01T17:10:42;19.23;;;2.78;;
23614;SDS011;11985;49.404;7.734;2023-02-01T17:15:45;17.65;;;2.95;;
23614;SDS011;11985;49.404;7.734;2023-02-01T17:20:50;17.27;;;2.72;;
23614;SDS011;11985;49.404;7.734;2023-02-01T17:25:53;21.95;;;3.85;;
23614;SDS011;11985;49.404;7.734;2023-02-01T17:30:55;15.43;;;2.90;;
23614;SDS011;11985;49.404;7.734;2023-02-01T17:35:57;12.60;;;3.92;;
23614;SDS011;11985;49.404;7.734;2023-02-01T17:41:00;12.10;;;3.17;;
23614;SDS011;11985;49.404;7.734;2023-02-01T17:46:03;20.55;;;4.53;;
23614;SDS011;11985;49.404;7.734;2023-02-01T17:51:13;22.23;;;5.97;;
23614;SDS011;11985;49.404;7.734;2023-02-01T17:56:18;12.20;;;2.75;;
23614;SDS011;11985;49.404;7.734;2023-02-01T18:01:22;19.00;;;3.53;;
23614;SDS011;11985;49.404;7.734;2023-02-01T18:06:25;18.80;;;2.50;;
23614;SDS011;11985;49.404;7.734;2023-02-01T18:11:28;15.63;;;2.67;;
23614;SDS011;11985;49.404;7.734;2023-02-01T18:21:35;17.77;;;2.83;;
23614;SDS011;11985;49.404;7.734;2023-02-01T18:26:40;16.08;;;3.22;;
23614;SDS011;11985;49.404;7.734;2023-02-01T18:31:43;17.45;;;3.75;;
23614;SDS011;11985;49.404;7.734;2023-02-01T18:36:48;35.58;;;4.47;;
23614;SDS011;11985;49.404;7.734;2023-02-01T18:41:51;25.45;;;3.67;;
23614;SDS011;11985;49.404;7.734;2023-02-01T18:46:53;18.48;;;3.03;;
23614;SDS011;11985;49.404;7.734;2023-02-01T18:51:54;17.60;;;5.70;;
23614;SDS011;11985;49.404;7.734;2023-02-01T18:56:58;25.30;;;5.13;;
23614;SDS011;11985;49.404;7.734;2023-02-01T19:01:59;15.43;;;3.25;;
23614;SDS011;11985;49.404;7.734;2023-02-01T19:07:03;16.83;;;2.88;;
23614;SDS011;11985;49.404;7.734;2023-02-01T19:12:06;23.45;;;3.47;;
23614;SDS011;11985;49.404;7.734;2023-02-01T19:17:07;27.10;;;3.92;;
23614;SDS011;11985;49.404;7.734;2023-02-01T19:22:09;25.45;;;5.80;;
23614;SDS011;11985;49.404;7.734;2023-02-01T19:27:12;23.85;;;4.28;;
23614;SDS011;11985;49.404;7.734;2023-02-01T19:32:13;29.05;;;6.18;;
23614;SDS011;11985;49.404;7.734;2023-02-01T19:37:15;22.73;;;5.55;;
23614;SDS011;11985;49.404;7.734;2023-02-01T19:42:20;29.50;;;6.65;;
23614;SDS011;11985;49.404;7.734;2023-02-01T19:47:21;35.85;;;9.30;;
23614;SDS011;11985;49.404;7.734;2023-02-01T19:52:23;27.23;;;4.53;;
23614;SDS011;11985;49.404;7.734;2023-02-01T19:57:26;20.13;;;3.70;;
23614;SDS011;11985;49.404;7.734;2023-02-01T20:02:28;24.27;;;3.72;;
23614;SDS011;11985;49.404;7.734;2023-02-01T20:07:30;19.15;;;3.33;;
23614;SDS011;11985;49.404;7.734;2023-02-01T20:12:33;7.53;;;2.17;;
23614;SDS011;11985;49.404;7.734;2023-02-01T20:17:34;17.95;;;3.20;;
23614;SDS011;11985;49.404;7.734;2023-02-01T20:22:36;20.13;;;2.95;;
23614;SDS011;11985;49.404;7.734;2023-02-01T20:27:39;17.85;;;3.60;;
23614;SDS011;11985;49.404;7.734;2023-02-01T20:32:41;27.73;;;3.47;;
23614;SDS011;11985;49.404;7.734;2023-02-01T20:37:42;23.98;;;3.28;;
23614;SDS011;11985;49.404;7.734;2023-02-01T20:42:45;11.75;;;2.70;;
23614;SDS011;11985;49.404;7.734;2023-02-01T20:47:47;19.33;;;3.63;;
23614;SDS011;11985;49.404;7.734;2023-02-01T20:52:49;15.82;;;3.08;;
23614;SDS011;11985;49.404;7.734;2023-02-01T20:57:52;14.00;;;3.28;;
23614;SDS011;11985;49.404;7.734;2023-02-01T21:02:54;27.27;;;4.97;;
23614;SDS011;11985;49.404;7.734;2023-02-01T21:07:55;24.30;;;4.43;;
23614;SDS011;11985;49.404;7.734;2023-02-01T21:12:58;26.60;;;3.70;;
23614;SDS011;11985;49.404;7.734;2023-02-01T21:18:00;15.02;;;3.38;;
23614;SDS011;11985;49.404;7.734;2023-02-01T21:23:01;22.75;;;4.18;;
23614;SDS011;11985;49.404;7.734;2023-02-01T21:28:04;24.67;;;4.55;;
23614;SDS011;11985;49.404;7.734;2023-02-01T21:33:06;23.83;;;6.05;;
23614;SDS011;11985;49.404;7.734;2023-02-01T21:38:08;25.40;;;4.90;;
23614;SDS011;11985;49.404;7.734;2023-02-01T21:43:11;27.63;;;4.10;;
23614;SDS011;11985;49.404;7.734;2023-02-01T21:48:12;35.97;;;5.43;;
23614;SDS011;11985;49.404;7.734;2023-02-01T21:53:14;20.33;;;3.72;;
23614;SDS011;11985;49.404;7.734;2023-02-01T21:58:17;24.67;;;4.78;;
23614;SDS011;11985;49.404;7.734;2023-02-01T22:03:18;16.65;;;3.80;;
23614;SDS011;11985;49.404;7.734;2023-02-01T22:08:20;19.30;;;4.57;;
23614;SDS011;11985;49.404;7.734;2023-02-01T22:13:23;18.45;;;3.85;;
23614;SDS011;11985;49.404;7.734;2023-02-01T22:18:24;20.65;;;4.30;;
23614;SDS011;11985;49.404;7.734;2023-02-01T22:23:26;23.70;;;4.70;;
23614;SDS011;11985;49.404;7.734;2023-02-01T22:28:29;17.38;;;3.15;;
23614;SDS011;11985;49.404;7.734;2023-02-01T22:33:30;18.20;;;3.25;;
23614;SDS011;11985;49.404;7.734;2023-02-01T22:38:33;21.63;;;3.15;;
23614;SDS011;11985;49.404;7.734;2023-02-01T22:43:37;20.92;;;3.88;;
23614;SDS011;11985;49.404;7.734;2023-02-01T22:48:39;21.08;;;3.78;;
23614;SDS011;11985;49.404;7.734;2023-02-01T22:53:42;19.73;;;3.15;;
23614;SDS011;11985;49.404;7.734;2023-02-01T22:58:45;23.95;;;4.53;;
23614;SDS011;11985;49.404;7.734;2023-02-01T23:03:47;18.48;;;3.80;;
23614;SDS011;11985;49.404;7.734;2023-02-01T23:08:48;26.73;;;4.32;;
23614;SDS011;11985;49.404;7.734;2023-02-01T23:13:56;17.65;;;3.95;;
23614;SDS011;11985;49.404;7.734;2023-02-01T23:18:57;22.45;;;3.78;;
23614;SDS011;11985;49.404;7.734;2023-02-01T23:23:59;19.77;;;4.32;;
23614;SDS011;11985;49.404;7.734;2023-02-01T23:29:03;23.92;;;4.72;;
23614;SDS011;11985;49.404;7.734;2023-02-01T23:34:05;20.30;;;3.58;;
23614;SDS011;11985;49.404;7.734;2023-02-01T23:39:07;20.35;;;4.70;;
23614;SDS011;11985;49.404;7.734;2023-02-01T23:44:10;24.73;;;4.60;;
23614;SDS011;11985;49.404;7.734;2023-02-01T23:49:12;17.88;;;3.65;;
23614;SDS011;11985;49.404;7.734;2023-02-01T23:54:15;25.10;;;4.78;;
23614;SDS011;11985;49.404;7.734;2023-02-01T23:59:18;22.52;;;3.72;;
